createdAt,value
2023-04-22T00:00:15.678Z,10.20
2023-04-22T00:10:39.446Z,11.00
2023-04-22T00:20:44.478Z,10.30
2023-04-22T00:30:48.202Z,10.90
2023-04-22T00:40:52.064Z,10.40
2023-04-22T00:50:56.034Z,10.80
2023-04-22T01:01:00.126Z,11.40
2023-04-22T01:11:03.974Z,12.70
2023-04-22T01:21:07.944Z,9.50
2023-04-22T01:31:12.625Z,9.10
2023-04-22T01:41:16.910Z,9.40
2023-04-22T01:51:21.329Z,10.50
2023-04-22T02:01:25.284Z,12.10
2023-04-22T02:11:29.223Z,11.00
2023-04-22T02:21:33.710Z,11.00
2023-04-22T02:31:37.804Z,10.20
2023-04-22T02:41:41.440Z,10.80
2023-04-22T02:51:45.624Z,10.70
2023-04-22T03:01:49.910Z,9.30
2023-04-22T03:12:04.632Z,9.40
2023-04-22T03:22:08.743Z,9.40
2023-04-22T03:32:13.143Z,9.40
2023-04-22T03:42:17.647Z,9.70
2023-04-22T03:52:21.920Z,12.60
2023-04-22T04:02:32.419Z,14.90
2023-04-22T04:12:37.642Z,16.90
2023-04-22T04:22:43.759Z,10.50
2023-04-22T04:32:48.399Z,9.10
2023-04-22T04:42:55.889Z,7.10
2023-04-22T04:53:02.848Z,6.50
2023-04-22T05:03:17.445Z,6.50
2023-04-22T05:13:22.842Z,6.70
2023-04-22T05:23:27.048Z,7.00
2023-04-22T05:33:32.844Z,7.30
2023-04-22T05:43:37.117Z,7.30
2023-04-22T05:53:46.299Z,7.40
2023-04-22T06:03:50.982Z,6.30
2023-04-22T06:13:55.278Z,6.20
2023-04-22T06:24:01.705Z,6.20
2023-04-22T06:34:06.375Z,6.30
2023-04-22T06:44:10.763Z,5.90
2023-04-22T06:54:27.526Z,6.10
2023-04-22T07:04:32.169Z,5.80
2023-04-22T07:14:37.714Z,5.00
2023-04-22T07:24:41.445Z,6.30
2023-04-22T07:34:45.434Z,4.60
2023-04-22T07:44:49.325Z,4.70
2023-04-22T07:54:53.177Z,3.80
2023-04-22T08:04:56.969Z,4.40
2023-04-22T08:15:00.832Z,4.70
2023-04-22T08:25:05.090Z,3.00
2023-04-22T08:35:09.522Z,3.40
2023-04-22T08:45:13.863Z,3.10
2023-04-22T08:55:17.614Z,4.10
2023-04-22T09:05:25.171Z,2.30
2023-04-22T09:15:30.671Z,2.10
2023-04-22T09:25:36.118Z,3.50
2023-04-22T09:35:42.048Z,1.90
2023-04-22T09:45:45.766Z,2.30
2023-04-22T09:55:55.165Z,1.80
2023-04-22T10:05:59.319Z,1.90
2023-04-22T10:16:03.602Z,1.90
2023-04-22T10:26:07.360Z,1.80
2023-04-22T10:36:20.286Z,2.20
2023-04-22T10:46:33.192Z,1.80
2023-04-22T10:57:19.754Z,2.00
2023-04-22T11:07:32.103Z,2.30
2023-04-22T11:17:40.439Z,2.40
2023-04-22T11:27:46.576Z,2.00
2023-04-22T11:37:52.259Z,1.80
2023-04-22T11:47:56.878Z,2.20
2023-04-22T11:58:12.843Z,1.60
2023-04-22T12:08:19.061Z,1.80
2023-04-22T12:18:33.664Z,1.60
2023-04-22T12:28:41.565Z,1.70
2023-04-22T12:38:45.394Z,2.60
2023-04-22T12:48:49.264Z,1.50
2023-04-22T12:58:53.027Z,1.50
2023-04-22T13:08:57.200Z,1.50
2023-04-22T13:19:01.585Z,1.60
2023-04-22T13:29:11.279Z,1.30
2023-04-22T13:39:15.147Z,1.40
2023-04-22T13:49:18.931Z,1.20
2023-04-22T13:59:22.675Z,1.30
2023-04-22T14:09:26.543Z,1.50
2023-04-22T14:19:32.060Z,1.30
2023-04-22T14:29:35.722Z,1.40
2023-04-22T14:39:39.740Z,1.30
2023-04-22T14:49:45.191Z,1.30
2023-04-22T14:59:48.951Z,1.30
2023-04-22T15:09:53.637Z,1.60
2023-04-22T15:19:58.118Z,1.70
2023-04-22T15:30:02.536Z,2.10
2023-04-22T15:40:08.917Z,1.50
2023-04-22T15:50:12.581Z,1.30
2023-04-22T16:00:16.666Z,1.50
2023-04-22T16:10:21.223Z,1.30
2023-04-22T16:20:25.112Z,1.60
2023-04-22T16:30:29.085Z,1.30
2023-04-22T16:40:32.904Z,1.60
2023-04-22T16:50:39.076Z,1.40
2023-04-22T17:00:42.823Z,1.40
2023-04-22T17:10:46.811Z,2.00
2023-04-22T17:20:50.771Z,2.50
2023-04-22T17:30:54.746Z,2.90
2023-04-22T17:40:59.441Z,1.60
2023-04-22T17:51:06.988Z,1.70
2023-04-22T18:01:10.859Z,6.40
2023-04-22T18:11:14.841Z,11.90
2023-04-22T18:21:18.680Z,34.10
2023-04-22T18:31:22.952Z,10.30
2023-04-22T18:41:26.926Z,10.70
2023-04-22T18:51:31.207Z,28.30
2023-04-22T19:01:36.099Z,8.80
2023-04-22T19:11:40.056Z,6.50
2023-04-22T19:21:43.939Z,27.40
2023-04-22T19:31:47.794Z,10.20
2023-04-22T19:41:51.702Z,46.20
2023-04-22T19:51:57.196Z,25.90
2023-04-22T20:02:01.424Z,27.00
2023-04-22T20:12:06.579Z,28.50
2023-04-22T20:22:11.601Z,30.70
2023-04-22T20:32:17.042Z,27.70
2023-04-22T20:42:22.226Z,33.30
2023-04-22T20:52:26.125Z,22.00
2023-04-22T21:02:31.517Z,19.00
2023-04-22T21:12:35.993Z,24.70
2023-04-22T21:22:43.296Z,15.20
2023-04-22T21:32:47.018Z,21.40
2023-04-22T21:42:51.271Z,18.40
2023-04-22T21:52:55.035Z,13.30
2023-04-22T22:02:59.014Z,14.50
2023-04-22T22:13:04.625Z,10.10
2023-04-22T22:23:08.379Z,11.90
2023-04-22T22:33:12.146Z,16.60
2023-04-22T22:43:15.810Z,17.40
2023-04-22T22:53:19.569Z,13.10
2023-04-22T23:03:23.482Z,11.00
2023-04-22T23:13:27.823Z,24.00
2023-04-22T23:23:32.926Z,14.40
2023-04-22T23:33:42.512Z,13.30
2023-04-22T23:43:46.092Z,11.70
2023-04-22T23:53:49.842Z,14.10
